Time;durP1;ratioP1;P1;durP2;ratioP2;P2;SDS_P1;SDS_P2;PMS_P1;PMS_P2;Temp;Humidity;BMP_temperature;BMP_pressure;BME280_temperature;BME280_humidity;BME280_pressure;Samples;Min_cycle;Max_cycle;Signal;HPM_P1;HPM_P2
2020/12/14 00:02:43;;;;;;;8.90;5.28;;;20.30;45.70;;;;;;6270932;28;20032;-67
2020/12/14 00:05:44;;;;;;;10.45;6.32;;;20.20;45.60;;;;;;6270086;28;20032;-66
2020/12/14 00:08:44;;;;;;;8.15;5.45;;;20.20;45.60;;;;;;6269946;28;20112;-65
2020/12/14 00:11:45;;;;;;;9.45;5.85;;;20.20;45.60;;;;;;6271046;28;20072;-66
2020/12/14 00:14:45;;;;;;;9.52;5.78;;;20.20;45.70;;;;;;6270439;28;20037;-67
2020/12/14 00:17:46;;;;;;;9.68;6.05;;;20.20;45.70;;;;;;6271342;28;20037;-66
2020/12/14 00:20:46;;;;;;;9.90;6.05;;;20.20;45.80;;;;;;6270467;28;20021;-67
2020/12/14 00:23:47;;;;;;;9.00;5.40;;;20.20;45.70;;;;;;6271073;28;20032;-66
2020/12/14 00:26:50;;;;;;;10.13;6.03;;;20.20;45.70;;;;;;6270801;28;20032;-66
2020/12/14 00:29:51;;;;;;;10.77;5.80;;;20.20;45.70;;;;;;6270140;28;20442;-66
2020/12/14 00:32:52;;;;;;;8.15;5.55;;;20.20;45.70;;;;;;6270788;28;20021;-66
2020/12/14 00:35:52;;;;;;;9.30;6.00;;;20.20;45.70;;;;;;6270532;28;20036;-66
2020/12/14 00:38:53;;;;;;;8.80;5.82;;;20.20;45.70;;;;;;6271043;28;20086;-66
2020/12/14 00:41:53;;;;;;;11.38;6.45;;;20.10;45.70;;;;;;6269968;28;20067;-65
2020/12/14 00:44:54;;;;;;;10.85;6.40;;;20.10;45.60;;;;;;6269391;28;20029;-67
2020/12/14 00:47:54;;;;;;;9.98;5.63;;;20.20;45.70;;;;;;6270308;28;20034;-66
2020/12/14 00:50:54;;;;;;;9.57;5.60;;;20.20;45.70;;;;;;6269877;28;20021;-66
2020/12/14 00:53:56;;;;;;;11.52;6.43;;;20.20;45.70;;;;;;6270886;28;20109;-66
2020/12/14 00:56:57;;;;;;;8.60;5.47;;;20.20;45.80;;;;;;6262355;28;20436;-66
2020/12/14 00:59:57;;;;;;;8.77;5.43;;;20.20;45.70;;;;;;6245367;28;20043;-66
2020/12/14 01:02:58;;;;;;;9.95;5.80;;;20.20;45.70;;;;;;6244967;28;20032;-66
2020/12/14 01:06:01;;;;;;;10.07;5.82;;;20.20;45.80;;;;;;6245308;28;20518;-66
2020/12/14 01:09:02;;;;;;;9.57;5.93;;;20.20;45.80;;;;;;6252356;28;20032;-66
2020/12/14 01:12:02;;;;;;;9.30;5.55;;;20.10;45.70;;;;;;6270208;28;20037;-66
2020/12/14 01:15:05;;;;;;;10.50;6.00;;;20.20;45.80;;;;;;6268297;28;20021;-66
2020/12/14 01:18:05;;;;;;;9.15;5.57;;;20.10;45.70;;;;;;6269633;28;20094;-65
2020/12/14 01:21:06;;;;;;;9.30;5.50;;;20.10;45.70;;;;;;6269496;28;20032;-66
2020/12/14 01:24:06;;;;;;;8.95;5.60;;;20.20;45.70;;;;;;6269386;28;20522;-66
2020/12/14 01:27:06;;;;;;;10.73;6.00;;;20.10;46.40;;;;;;6269336;28;20060;-66
2020/12/14 01:30:07;;;;;;;8.00;5.45;;;20.10;45.60;;;;;;6268956;28;20025;-65
2020/12/14 01:33:07;;;;;;;8.70;5.50;;;20.20;45.70;;;;;;6269220;28;20110;-66
2020/12/14 01:36:08;;;;;;;9.88;5.50;;;20.10;45.60;;;;;;6268922;28;20036;-66
2020/12/14 01:39:08;;;;;;;9.13;5.85;;;20.10;45.70;;;;;;6268965;28;20025;-66
2020/12/14 01:42:09;;;;;;;9.48;5.45;;;20.10;45.70;;;;;;6268761;28;20108;-66
2020/12/14 01:45:10;;;;;;;9.13;5.63;;;20.10;45.70;;;;;;6269055;28;20040;-66
2020/12/14 01:48:12;;;;;;;9.18;5.95;;;20.10;45.80;;;;;;6268873;28;20029;-66
2020/12/14 01:51:13;;;;;;;7.97;5.35;;;20.10;45.80;;;;;;6268470;28;20029;-66
2020/12/14 01:54:23;;;;;;;8.00;5.43;;;20.10;45.70;;;;;;6269029;28;20384;-66
2020/12/14 01:57:24;;;;;;;9.85;5.85;;;20.10;45.70;;;;;;6269056;28;20028;-66
2020/12/14 02:00:24;;;;;;;9.82;5.55;;;20.10;45.80;;;;;;6268394;28;20051;-66
2020/12/14 02:03:25;;;;;;;8.85;5.00;;;20.10;45.70;;;;;;6268237;28;20395;-66
2020/12/14 02:06:25;;;;;;;8.23;5.40;;;20.10;45.70;;;;;;6268154;28;20032;-66
2020/12/14 02:09:25;;;;;;;8.73;5.40;;;20.10;45.70;;;;;;6267151;28;20029;-66
2020/12/14 02:12:27;;;;;;;8.15;5.38;;;20.10;45.80;;;;;;6267103;28;20098;-66
2020/12/14 02:15:28;;;;;;;8.93;5.65;;;20.10;45.80;;;;;;6266606;28;20634;-65
2020/12/14 02:18:28;;;;;;;9.85;5.55;;;20.10;45.80;;;;;;6267038;28;20029;-65
2020/12/14 02:21:29;;;;;;;8.95;5.57;;;20.10;45.70;;;;;;6267841;28;20052;-65
2020/12/14 02:24:30;;;;;;;9.48;5.10;;;20.10;45.70;;;;;;6267981;28;20063;-65
2020/12/14 02:27:32;;;;;;;7.70;5.00;;;20.10;45.70;;;;;;6267920;28;20250;-65
2020/12/14 02:30:33;;;;;;;8.98;5.10;;;20.10;45.70;;;;;;6267380;28;20059;-65
2020/12/14 02:33:33;;;;;;;8.30;5.30;;;20.10;45.80;;;;;;6268288;28;20036;-65
2020/12/14 02:36:34;;;;;;;9.25;5.43;;;20.10;45.80;;;;;;6267409;28;20076;-66
2020/12/14 02:39:37;;;;;;;6.50;4.93;;;20.00;46.50;;;;;;6268063;28;20025;-66
2020/12/14 02:42:37;;;;;;;8.35;5.70;;;20.10;45.80;;;;;;6267244;28;20044;-65
2020/12/14 02:45:38;;;;;;;8.07;5.25;;;20.10;45.80;;;;;;6268293;28;20037;-65
2020/12/14 02:48:38;;;;;;;7.78;4.50;;;20.00;45.70;;;;;;6267864;28;20343;-64
2020/12/14 02:51:39;;;;;;;7.45;4.68;;;20.00;45.80;;;;;;6268682;28;20395;-64
2020/12/14 02:54:42;;;;;;;7.85;4.63;;;20.10;45.80;;;;;;6268278;28;20446;-65
2020/12/14 02:57:42;;;;;;;8.23;5.22;;;20.00;45.70;;;;;;6267378;28;20337;-66
2020/12/14 03:00:43;;;;;;;7.45;4.82;;;20.00;45.70;;;;;;6267493;28;20438;-66
2020/12/14 03:03:43;;;;;;;6.90;4.75;;;20.10;45.80;;;;;;6267496;28;20495;-66
2020/12/14 03:06:45;;;;;;;7.35;4.90;;;20.00;45.70;;;;;;6267789;28;20399;-65
2020/12/14 03:09:46;;;;;;;7.32;4.53;;;20.10;45.70;;;;;;6267156;28;20480;-66
2020/12/14 03:12:46;;;;;;;7.53;5.07;;;20.00;45.70;;;;;;6267377;28;20051;-66
2020/12/14 03:15:46;;;;;;;8.32;5.05;;;20.00;45.80;;;;;;6266078;28;20483;-66
2020/12/14 03:18:47;;;;;;;8.63;5.07;;;20.00;45.70;;;;;;6268583;28;20555;-65
2020/12/14 03:21:47;;;;;;;6.07;4.20;;;20.00;45.70;;;;;;6272546;28;20025;-66
2020/12/14 03:24:48;;;;;;;7.13;4.70;;;20.00;45.70;;;;;;6271964;28;20021;-66
2020/12/14 03:27:48;;;;;;;6.53;4.50;;;20.00;45.70;;;;;;6272139;28;20442;-66
2020/12/14 03:30:49;;;;;;;6.15;4.57;;;20.00;45.90;;;;;;6271890;28;20482;-66
2020/12/14 03:33:54;;;;;;;6.30;4.93;;;20.00;45.70;;;;;;6272537;28;20533;-66
2020/12/14 03:36:57;;;;;;;6.72;4.13;;;20.00;45.70;;;;;;6272129;28;20036;-66
2020/12/14 03:39:57;;;;;;;6.07;4.15;;;20.00;45.80;;;;;;6271609;28;20051;-66
2020/12/14 03:42:57;;;;;;;5.65;4.28;;;20.00;45.80;;;;;;6271424;28;20530;-66
2020/12/14 03:45:58;;;;;;;5.95;4.13;;;20.00;45.70;;;;;;6270527;28;20530;-66
2020/12/14 03:48:59;;;;;;;7.90;4.60;;;20.00;45.80;;;;;;6271841;28;20379;-66
2020/12/14 03:51:59;;;;;;;7.15;4.70;;;20.00;45.70;;;;;;6271108;28;20445;-66
2020/12/14 03:55:00;;;;;;;7.45;4.68;;;20.00;45.70;;;;;;6270328;28;20416;-66
2020/12/14 03:58:00;;;;;;;6.30;3.95;;;20.00;45.80;;;;;;6271423;28;20103;-66
2020/12/14 04:01:00;;;;;;;5.68;4.00;;;20.00;45.80;;;;;;6249056;28;20025;-66
2020/12/14 04:04:01;;;;;;;6.45;4.38;;;20.00;45.80;;;;;;6248667;28;20029;-66
2020/12/14 04:07:01;;;;;;;5.95;4.03;;;20.00;45.90;;;;;;6265052;28;20051;-66
2020/12/14 04:10:02;;;;;;;6.43;4.35;;;20.00;45.80;;;;;;6273834;28;20044;-66
2020/12/14 04:13:03;;;;;;;6.88;4.30;;;20.00;45.80;;;;;;6271993;28;20471;-65
2020/12/14 04:16:03;;;;;;;6.05;4.10;;;20.00;45.80;;;;;;6271210;28;20029;-65
2020/12/14 04:19:04;;;;;;;5.93;3.97;;;20.00;45.80;;;;;;6270899;28;20139;-66
2020/12/14 04:22:07;;;;;;;5.47;3.97;;;20.00;45.90;;;;;;6270735;28;20025;-66
2020/12/14 04:25:08;;;;;;;6.25;4.10;;;20.00;45.80;;;;;;6271215;28;20025;-66
2020/12/14 04:28:08;;;;;;;5.57;3.83;;;20.00;45.80;;;;;;6271305;28;20083;-66
2020/12/14 04:31:09;;;;;;;5.55;3.92;;;20.00;45.80;;;;;;6269873;28;20116;-66
2020/12/14 04:34:09;;;;;;;5.28;3.67;;;20.00;45.80;;;;;;6271101;28;20048;-66
2020/12/14 04:37:10;;;;;;;5.78;4.18;;;20.00;45.80;;;;;;6269144;28;20061;-66
2020/12/14 04:40:10;;;;;;;5.80;4.10;;;19.90;45.80;;;;;;6269187;28;20025;-65
2020/12/14 04:43:12;;;;;;;5.93;3.88;;;20.00;45.90;;;;;;6271526;28;20029;-65
2020/12/14 04:46:13;;;;;;;6.22;3.80;;;20.00;45.90;;;;;;6277246;28;20541;-66
2020/12/14 04:49:18;;;;;;;5.57;4.05;;;20.00;46.50;;;;;;6273656;28;20021;-65
2020/12/14 04:52:21;;;;;;;5.63;4.07;;;20.00;45.90;;;;;;6269853;28;20421;-65
2020/12/14 04:55:23;;;;;;;5.65;3.90;;;19.90;45.80;;;;;;6270531;28;20028;-65
2020/12/14 04:58:24;;;;;;;5.10;3.50;;;19.90;45.80;;;;;;6270077;28;20017;-66
2020/12/14 05:01:24;;;;;;;8.57;4.07;;;19.90;45.80;;;;;;6257068;28;20150;-65
2020/12/14 05:04:25;;;;;;;5.18;3.83;;;19.90;45.80;;;;;;6244423;28;20809;-66
2020/12/14 05:07:42;;;;;;;5.43;3.95;;;19.90;45.80;;;;;;6259433;28;20059;-66
2020/12/14 05:10:42;;;;;;;4.85;3.85;;;20.00;45.80;;;;;;6269299;28;20545;-65
2020/12/14 05:13:43;;;;;;;5.97;3.85;;;20.00;45.70;;;;;;6270006;28;20017;-65
2020/12/14 05:16:44;;;;;;;5.00;3.80;;;20.00;45.70;;;;;;6269954;28;20024;-66
2020/12/14 05:19:44;;;;;;;5.25;3.42;;;20.00;45.70;;;;;;6268033;28;20025;-66
2020/12/14 05:22:56;;;;;;;4.53;3.05;;;20.00;45.60;;;;;;6247120;28;20036;-66
2020/12/14 05:26:12;;;;;;;4.95;3.60;;;20.10;46.00;;;;;;6244576;28;20017;-66
2020/12/14 05:29:19;;;;;;;;;;;20.10;45.70;;;;;;6243512;28;20028;-66
2020/12/14 05:32:20;;;;;;;5.10;3.65;;;20.10;45.70;;;;;;6244821;28;19905;-65
2020/12/14 05:35:33;;;;;;;4.93;3.45;;;20.10;45.70;;;;;;6244279;28;20072;-66
2020/12/14 05:38:33;;;;;;;4.20;3.20;;;20.10;45.70;;;;;;6244743;28;20025;-66
2020/12/14 05:41:34;;;;;;;4.10;3.10;;;20.10;45.70;;;;;;6243853;28;20060;-66
2020/12/14 05:44:35;;;;;;;3.55;2.97;;;20.10;45.70;;;;;;6243672;28;20040;-66
2020/12/14 05:47:35;;;;;;;6.57;3.22;;;20.10;45.70;;;;;;6244706;28;20056;-66
2020/12/14 05:50:35;;;;;;;4.72;3.20;;;20.10;45.70;;;;;;6244779;28;20388;-66
2020/12/14 05:53:40;;;;;;;4.05;2.90;;;20.10;45.70;;;;;;6269023;28;20491;-66
2020/12/14 05:56:43;;;;;;;5.28;3.60;;;20.10;45.80;;;;;;6267271;28;20548;-65
2020/12/14 05:59:43;;;;;;;4.30;3.10;;;20.20;45.80;;;;;;6268796;28;20025;-66
2020/12/14 06:02:45;;;;;;;5.22;3.53;;;20.20;45.80;;;;;;6267989;28;20104;-66
2020/12/14 06:05:46;;;;;;;4.40;3.25;;;20.20;45.80;;;;;;6268745;28;20083;-66
2020/12/14 06:08:47;;;;;;;4.57;2.85;;;20.20;45.60;;;;;;6268244;28;20021;-66
2020/12/14 06:11:53;;;;;;;3.72;2.90;;;20.30;45.40;;;;;;6268392;28;20407;-66
2020/12/14 06:14:59;;;;;;;4.32;3.08;;;20.40;45.20;;;;;;6268543;28;20031;-66
2020/12/14 06:18:02;;;;;;;4.55;2.90;;;20.50;45.20;;;;;;6268682;28;20021;-66
2020/12/14 06:21:02;;;;;;;4.25;2.90;;;20.50;45.20;;;;;;6268538;28;20413;-66
2020/12/14 06:24:05;;;;;;;5.53;3.33;;;20.60;45.20;;;;;;6268199;28;20037;-66
2020/12/14 06:27:10;;;;;;;3.47;2.70;;;20.60;45.10;;;;;;6267952;28;20503;-65
2020/12/14 06:30:31;;;;;;;3.85;2.78;;;20.70;45.20;;;;;;6267660;28;20110;-65
2020/12/14 06:33:36;;;;;;;4.30;3.03;;;20.70;45.30;;;;;;6266434;28;20132;-66
2020/12/14 06:36:39;;;;;;;4.10;3.13;;;20.80;45.30;;;;;;6267829;28;20155;-65
2020/12/14 06:39:44;;;;;;;14.32;4.28;;;20.80;45.30;;;;;;6260504;28;20044;-64
2020/12/14 06:42:45;;;;;;;22.13;8.88;;;20.70;45.20;;;;;;6239025;28;20507;-65
2020/12/14 06:45:55;;;;;;;23.52;11.75;;;20.60;44.00;;;;;;6241682;28;20028;-65
2020/12/14 06:48:55;;;;;;;18.88;13.65;;;20.50;41.60;;;;;;6239356;28;20025;-65
2020/12/14 06:51:56;;;;;;;21.80;9.27;;;20.40;41.00;;;;;;6241400;28;20047;-64
2020/12/14 06:54:56;;;;;;;19.05;9.52;;;20.60;42.00;;;;;;6241666;28;20029;-65
2020/12/14 06:57:57;;;;;;;13.88;9.15;;;20.80;41.80;;;;;;6258867;28;20028;-67
2020/12/14 07:00:58;;;;;;;13.90;7.57;;;20.90;41.90;;;;;;6249056;28;20029;-65
2020/12/14 07:04:01;;;;;;;10.15;6.80;;;21.00;41.90;;;;;;6244767;28;20100;-65
2020/12/14 07:07:24;;;;;;;11.18;6.75;;;21.00;42.10;;;;;;6243312;28;20036;-64
2020/12/14 07:10:26;;;;;;;10.50;6.95;;;21.10;42.40;;;;;;6228187;28;20181;-65
2020/12/14 07:13:30;;;;;;;9.07;6.25;;;21.20;42.50;;;;;;6246161;28;20032;-65
2020/12/14 07:16:31;;;;;;;10.48;6.13;;;21.20;42.60;;;;;;6245990;28;20029;-65
2020/12/14 07:19:36;;;;;;;9.85;6.45;;;21.20;42.80;;;;;;6268574;28;20399;-65
2020/12/14 07:22:50;;;;;;;11.20;5.43;;;21.30;43.00;;;;;;6266690;28;20557;-66
2020/12/14 07:25:54;;;;;;;7.55;5.55;;;21.30;43.10;;;;;;6267651;28;20029;-65
2020/12/14 07:28:54;;;;;;;10.80;5.20;;;21.30;43.10;;;;;;6250942;28;20026;-64
2020/12/14 07:31:55;;;;;;;9.35;5.85;;;21.40;43.30;;;;;;6229036;28;20083;-65
2020/12/14 07:34:56;;;;;;;11.10;5.57;;;21.40;43.50;;;;;;6242944;28;20061;-67
2020/12/14 07:37:56;;;;;;;7.47;4.65;;;21.40;43.40;;;;;;6247448;28;20477;-67
2020/12/14 07:41:05;;;;;;;7.43;4.50;;;21.40;43.30;;;;;;6238712;28;20473;-66
2020/12/14 07:44:05;;;;;;;6.85;4.55;;;21.40;43.40;;;;;;6243916;28;20028;-66
2020/12/14 07:47:21;;;;;;;7.65;4.47;;;21.50;43.90;;;;;;6240738;28;20029;-65
2020/12/14 07:50:23;;;;;;;;;;;21.50;43.60;;;;;;6251850;28;20022;-64
2020/12/14 07:53:23;;;;;;;7.32;4.60;;;21.50;43.60;;;;;;6252842;28;19905;-65
2020/12/14 07:56:23;;;;;;;6.20;4.50;;;21.50;43.60;;;;;;6249237;28;20379;-66
2020/12/14 07:59:26;;;;;;;7.22;4.47;;;21.50;43.70;;;;;;6232433;28;20388;-66
2020/12/14 08:02:29;;;;;;;6.07;4.32;;;21.50;43.60;;;;;;6240660;28;20527;-66
2020/12/14 08:05:29;;;;;;;6.80;4.13;;;21.50;43.70;;;;;;6243360;28;20028;-67
2020/12/14 08:08:32;;;;;;;6.57;4.45;;;21.50;43.60;;;;;;6247089;28;20042;-66
2020/12/14 08:11:33;;;;;;;6.15;4.07;;;21.50;43.90;;;;;;6246522;28;20136;-66
2020/12/14 08:14:34;;;;;;;10.13;4.00;;;21.60;43.90;;;;;;6251394;28;20026;-67
2020/12/14 08:17:36;;;;;;;6.53;4.25;;;21.60;44.00;;;;;;6246974;28;20535;-65
2020/12/14 08:20:42;;;;;;;5.57;4.03;;;21.60;43.90;;;;;;6266449;28;20103;-67
2020/12/14 08:23:42;;;;;;;5.63;3.80;;;21.60;43.80;;;;;;6255087;28;20464;-66
2020/12/14 08:26:44;;;;;;;4.18;3.38;;;21.50;43.80;;;;;;6265235;28;20029;-67
2020/12/14 08:30:05;;;;;;;4.50;3.60;;;21.60;43.90;;;;;;6245907;28;20025;-65
2020/12/14 08:33:18;;;;;;;5.72;3.83;;;21.60;43.90;;;;;;6246999;28;20042;-65
2020/12/14 08:36:19;;;;;;;6.70;3.63;;;21.60;44.00;;;;;;6247978;28;20445;-65
2020/12/14 08:39:19;;;;;;;4.82;3.30;;;21.60;44.00;;;;;;6257677;28;20025;-67
2020/12/14 08:42:21;;;;;;;4.70;4.00;;;21.60;44.00;;;;;;6254253;28;20025;-66
2020/12/14 08:45:25;;;;;;;5.45;3.55;;;21.60;44.10;;;;;;6267796;28;20116;-66
2020/12/14 08:48:27;;;;;;;3.92;3.13;;;21.60;44.00;;;;;;6263680;28;20032;-66
2020/12/14 08:51:32;;;;;;;5.88;3.65;;;21.60;44.00;;;;;;6249071;28;20508;-66
2020/12/14 08:54:33;;;;;;;4.63;3.40;;;21.60;44.10;;;;;;6251337;28;20112;-66
2020/12/14 08:57:34;;;;;;;4.88;3.15;;;21.60;44.00;;;;;;6246346;28;20053;-66
2020/12/14 09:00:34;;;;;;;4.35;3.17;;;21.60;44.10;;;;;;6245596;28;20021;-66
2020/12/14 09:03:55;;;;;;;3.78;2.83;;;21.60;44.10;;;;;;6246767;28;20029;-66
2020/12/14 09:06:56;;;;;;;5.88;3.70;;;21.60;44.10;;;;;;6262129;28;20028;-66
2020/12/14 09:09:56;;;;;;;7.47;3.08;;;21.60;45.20;;;;;;6255271;28;20025;-66
2020/12/14 09:13:05;;;;;;;7.70;3.10;;;21.70;44.20;;;;;;6245748;28;20025;-66
2020/12/14 09:16:05;;;;;;;5.47;3.00;;;21.60;44.40;;;;;;6247298;28;20577;-65
2020/12/14 09:19:06;;;;;;;4.15;3.00;;;21.70;44.60;;;;;;6242552;28;20029;-66
2020/12/14 09:22:07;;;;;;;6.00;2.95;;;21.70;44.30;;;;;;6244090;28;20033;-66
2020/12/14 09:25:08;;;;;;;3.92;3.00;;;21.70;44.30;;;;;;6246107;28;20075;-69
2020/12/14 09:28:08;;;;;;;10.30;2.80;;;21.70;44.40;;;;;;6247717;28;20477;-67
2020/12/14 09:31:09;;;;;;;6.45;3.00;;;21.60;44.70;;;;;;6248513;28;20366;-67
2020/12/14 09:34:10;;;;;;;4.15;3.03;;;21.60;44.80;;;;;;6247970;28;20040;-67
2020/12/14 09:37:11;;;;;;;7.63;3.25;;;21.60;44.80;;;;;;6270687;28;20306;-67
2020/12/14 09:40:12;;;;;;;3.83;2.83;;;21.50;44.60;;;;;;6259438;28;20028;-67
2020/12/14 09:43:12;;;;;;;3.20;2.50;;;21.50;44.70;;;;;;6258425;28;20039;-67
2020/12/14 09:46:12;;;;;;;4.50;2.70;;;21.50;44.70;;;;;;6252032;28;20488;-67
2020/12/14 09:49:13;;;;;;;3.97;2.97;;;21.50;44.60;;;;;;6247071;28;20423;-67
2020/12/14 09:52:13;;;;;;;4.45;2.72;;;21.50;44.70;;;;;;6252303;28;20407;-66
2020/12/14 09:55:14;;;;;;;5.05;2.90;;;21.50;44.70;;;;;;6244531;28;20056;-67
2020/12/14 09:58:14;;;;;;;3.17;2.30;;;21.50;44.70;;;;;;6244595;28;20080;-67
2020/12/14 10:01:15;;;;;;;3.38;2.53;;;21.40;44.60;;;;;;6244340;28;20037;-67
2020/12/14 10:04:16;;;;;;;3.78;2.67;;;21.40;44.60;;;;;;6245060;28;20021;-66
2020/12/14 10:07:16;;;;;;;2.88;2.33;;;21.40;44.60;;;;;;6269028;28;20021;-66
2020/12/14 10:10:17;;;;;;;3.88;2.88;;;21.40;44.60;;;;;;6268748;28;20036;-68
2020/12/14 10:13:18;;;;;;;2.70;2.38;;;21.40;44.60;;;;;;6269425;28;20028;-67
2020/12/14 10:16:18;;;;;;;3.17;2.35;;;21.40;44.70;;;;;;6269390;28;20036;-67
2020/12/14 10:19:19;;;;;;;3.50;2.35;;;21.40;44.60;;;;;;6269507;28;20021;-68
2020/12/14 10:22:20;;;;;;;3.05;2.25;;;21.40;44.60;;;;;;6268828;28;20032;-67
2020/12/14 10:25:21;;;;;;;3.83;3.13;;;21.40;44.60;;;;;;6269361;28;20078;-66
2020/12/14 10:28:22;;;;;;;11.60;5.15;;;21.30;44.00;;;;;;6253148;28;20041;-68
2020/12/14 10:31:23;;;;;;;12.13;6.82;;;21.10;42.60;;;;;;6244158;28;20024;-69
2020/12/14 10:34:23;;;;;;;18.05;4.75;;;21.00;41.60;;;;;;6244935;28;20622;-67
2020/12/14 10:37:24;;;;;;;12.93;5.40;;;21.20;44.10;;;;;;6255632;28;20515;-68
2020/12/14 10:40:26;;;;;;;9.63;4.88;;;21.40;42.20;;;;;;6246767;28;20073;-68
2020/12/14 10:43:27;;;;;;;13.23;6.65;;;21.40;42.30;;;;;;6251650;28;20080;-69
2020/12/14 10:46:27;;;;;;;9.88;5.95;;;21.30;41.20;;;;;;6244373;28;20057;-67
2020/12/14 10:49:28;;;;;;;13.25;4.85;;;21.10;41.70;;;;;;6261091;28;20026;-71
2020/12/14 10:52:28;;;;;;;16.83;6.00;;;21.30;42.50;;;;;;6244175;28;20044;-68
2020/12/14 10:55:29;;;;;;;14.73;5.47;;;21.30;41.30;;;;;;6245050;28;20108;-70
2020/12/14 10:58:29;;;;;;;13.38;5.47;;;21.50;42.50;;;;;;6244922;28;20442;-67
2020/12/14 11:01:29;;;;;;;11.68;5.25;;;21.50;42.50;;;;;;6251671;28;20395;-70
2020/12/14 11:04:31;;;;;;;15.18;6.20;;;21.50;41.20;;;;;;6270056;28;20701;-69
2020/12/14 11:07:33;;;;;;;20.23;6.00;;;21.30;41.50;;;;;;6264192;28;20043;-69
2020/12/14 11:10:33;;;;;;;13.07;5.40;;;21.50;41.90;;;;;;6241928;28;20037;-72
2020/12/14 11:13:34;;;;;;;13.00;5.07;;;21.50;42.00;;;;;;6244225;28;20026;-69
2020/12/14 11:16:38;;;;;;;11.00;4.82;;;21.60;42.40;;;;;;6243720;28;20025;-68
2020/12/14 11:19:39;;;;;;;8.55;4.28;;;21.60;42.20;;;;;;6243822;28;20104;-70
2020/12/14 11:22:39;;;;;;;15.23;4.60;;;21.60;42.50;;;;;;6243712;28;20029;-66
2020/12/14 11:25:40;;;;;;;19.13;4.55;;;21.70;42.90;;;;;;6242797;28;20100;-66
2020/12/14 11:28:40;;;;;;;13.77;4.30;;;21.70;42.60;;;;;;6243903;28;20036;-67
2020/12/14 11:31:42;;;;;;;12.80;4.55;;;21.70;42.60;;;;;;6242573;28;20395;-69
2020/12/14 11:34:42;;;;;;;6.53;4.10;;;21.80;42.70;;;;;;6238456;28;20029;-67
2020/12/14 11:37:43;;;;;;;5.70;3.30;;;21.70;42.70;;;;;;6241064;28;20025;-68
2020/12/14 11:40:43;;;;;;;10.35;3.95;;;21.80;42.80;;;;;;6243760;28;20029;-67
2020/12/14 11:43:44;;;;;;;5.40;3.58;;;21.80;42.80;;;;;;6247715;28;20025;-68
2020/12/14 11:46:49;;;;;;;7.20;3.80;;;21.80;42.90;;;;;;6248269;28;20029;-68
2020/12/14 11:49:49;;;;;;;7.82;3.97;;;21.80;43.00;;;;;;6263868;28;20021;-67
2020/12/14 11:52:49;;;;;;;7.60;3.60;;;21.80;43.20;;;;;;6268860;28;20036;-67
2020/12/14 11:55:50;;;;;;;5.78;3.15;;;21.80;43.10;;;;;;6248992;28;20034;-69
2020/12/14 11:58:50;;;;;;;8.93;3.17;;;21.80;43.10;;;;;;6247826;28;20101;-68
2020/12/14 12:01:53;;;;;;;20.02;3.22;;;21.80;43.00;;;;;;6247339;28;20033;-68
2020/12/14 12:04:54;;;;;;;14.93;3.50;;;21.90;43.50;;;;;;6247543;28;20026;-67
2020/12/14 12:07:54;;;;;;;6.13;2.92;;;21.90;43.60;;;;;;6247180;28;20391;-65
2020/12/14 12:10:55;;;;;;;5.15;3.25;;;21.80;43.60;;;;;;6245268;28;20037;-68
2020/12/14 12:13:55;;;;;;;4.38;2.90;;;21.70;43.60;;;;;;6246265;28;20022;-67
2020/12/14 12:16:56;;;;;;;4.25;3.05;;;21.70;43.60;;;;;;6248019;28;20437;-65
2020/12/14 12:19:56;;;;;;;5.15;3.30;;;21.70;43.60;;;;;;6259785;28;20490;-64
2020/12/14 12:22:58;;;;;;;4.47;2.83;;;21.70;43.70;;;;;;6277907;28;20025;-67
2020/12/14 12:25:58;;;;;;;10.00;2.80;;;21.60;43.70;;;;;;6293915;28;20025;-65
2020/12/14 12:28:59;;;;;;;6.53;3.00;;;21.60;43.70;;;;;;6273445;28;20036;-66
2020/12/14 12:31:59;;;;;;;5.45;3.03;;;21.60;43.70;;;;;;6268220;28;20475;-66
2020/12/14 12:35:00;;;;;;;5.30;2.47;;;21.60;43.70;;;;;;6247524;28;20348;-65
2020/12/14 12:38:00;;;;;;;15.80;4.78;;;21.60;43.80;;;;;;6245901;28;20025;-62
2020/12/14 12:41:01;;;;;;;13.77;6.10;;;21.40;42.60;;;;;;6245053;28;20029;-64
2020/12/14 12:44:01;;;;;;;19.75;10.43;;;21.20;40.60;;;;;;6245176;28;20038;-65
2020/12/14 12:47:05;;;;;;;22.80;11.38;;;21.00;39.00;;;;;;6246234;28;20442;-69
2020/12/14 12:50:06;;;;;;;20.95;7.57;;;20.90;40.00;;;;;;6252264;28;20013;-70
2020/12/14 12:53:06;;;;;;;19.00;7.72;;;21.20;43.10;;;;;;6268278;28;20551;-70
2020/12/14 12:56:07;;;;;;;17.88;5.80;;;21.40;43.10;;;;;;6269092;28;20028;-68
2020/12/14 12:59:07;;;;;;;18.05;5.80;;;21.50;43.60;;;;;;6246491;28;20033;-69
2020/12/14 13:02:08;;;;;;;13.88;5.72;;;21.60;43.20;;;;;;6263269;28;20030;-69
2020/12/14 13:05:08;;;;;;;16.80;4.90;;;21.70;43.90;;;;;;6246027;28;20037;-73
2020/12/14 13:08:09;;;;;;;16.63;4.85;;;21.80;44.60;;;;;;6263731;28;20033;-68
2020/12/14 13:11:10;;;;;;;10.63;4.78;;;21.80;45.00;;;;;;6268367;28;20033;-68
2020/12/14 13:14:13;;;;;;;17.58;5.00;;;21.80;44.30;;;;;;6246503;28;20033;-69
2020/12/14 13:17:14;;;;;;;12.38;4.70;;;21.80;44.10;;;;;;6264804;28;20047;-69
2020/12/14 13:20:15;;;;;;;26.77;4.80;;;21.80;44.00;;;;;;6248076;28;20029;-68
2020/12/14 13:23:15;;;;;;;31.70;5.53;;;21.90;45.60;;;;;;6256165;28;20044;-67
2020/12/14 13:26:17;;;;;;;30.13;4.80;;;21.90;46.30;;;;;;6244786;28;20033;-66
2020/12/14 13:29:17;;;;;;;33.63;4.93;;;22.00;46.50;;;;;;6266081;28;20092;-68
2020/12/14 13:32:18;;;;;;;14.30;4.35;;;22.00;45.00;;;;;;6259711;28;20494;-69
2020/12/14 13:35:19;;;;;;;8.38;5.20;;;21.80;45.00;;;;;;6244551;28;20105;-68
2020/12/14 13:38:19;;;;;;;13.23;4.30;;;21.60;43.30;;;;;;6243004;28;20033;-68
2020/12/14 13:41:20;;;;;;;10.57;4.60;;;21.50;42.90;;;;;;6253604;28;20030;-70
2020/12/14 13:44:21;;;;;;;11.75;4.93;;;21.70;43.20;;;;;;6242784;28;20052;-69
2020/12/14 13:47:21;;;;;;;10.02;3.83;;;21.80;43.40;;;;;;6246442;28;20029;-67
2020/12/14 13:50:22;;;;;;;7.93;3.40;;;21.80;42.90;;;;;;6267681;28;20036;-69
2020/12/14 13:53:22;;;;;;;6.55;3.72;;;21.80;43.20;;;;;;6244092;28;20112;-69
2020/12/14 13:56:23;;;;;;;5.88;3.67;;;21.90;43.00;;;;;;6244420;28;20499;-68
2020/12/14 13:59:24;;;;;;;7.80;3.50;;;21.90;43.20;;;;;;6261547;28;20126;-68
2020/12/14 14:02:24;;;;;;;8.18;3.33;;;21.90;43.10;;;;;;6243471;28;20025;-68
2020/12/14 14:05:25;;;;;;;6.50;3.17;;;21.90;42.90;;;;;;6242874;28;20379;-69
2020/12/14 14:08:26;;;;;;;8.02;3.05;;;22.00;43.10;;;;;;6258726;28;20472;-70
2020/12/14 14:11:26;;;;;;;4.68;2.97;;;22.00;43.10;;;;;;6242961;28;20025;-71
2020/12/14 14:14:27;;;;;;;5.85;2.92;;;22.00;43.20;;;;;;6261411;28;20096;-69
2020/12/14 14:17:27;;;;;;;6.40;3.17;;;22.00;43.10;;;;;;6263612;28;20025;-68
2020/12/14 14:20:28;;;;;;;4.30;2.75;;;22.00;43.20;;;;;;6267490;28;20029;-68
2020/12/14 14:23:28;;;;;;;12.82;3.00;;;22.00;43.20;;;;;;6260635;28;20456;-69
2020/12/14 14:26:29;;;;;;;7.70;2.50;;;22.00;43.30;;;;;;6250080;28;20021;-72
2020/12/14 14:29:29;;;;;;;6.90;2.95;;;22.00;43.10;;;;;;6252695;28;20089;-70
2020/12/14 14:32:30;;;;;;;6.18;3.15;;;22.10;43.40;;;;;;6241804;28;20060;-70
2020/12/14 14:35:31;;;;;;;5.65;2.85;;;22.00;43.40;;;;;;6248018;28;20036;-68
2020/12/14 14:38:31;;;;;;;14.45;3.13;;;22.10;43.40;;;;;;6249464;28;20028;-70
2020/12/14 14:41:32;;;;;;;6.70;2.80;;;22.10;43.30;;;;;;6241715;28;20492;-68
2020/12/14 14:44:32;;;;;;;11.48;2.28;;;22.10;43.40;;;;;;6254744;28;20028;-68
2020/12/14 14:47:33;;;;;;;5.28;2.70;;;22.10;43.40;;;;;;6268937;28;20033;-70
2020/12/14 14:50:33;;;;;;;26.52;3.00;;;22.10;43.40;;;;;;6246910;28;20021;-72
2020/12/14 14:53:34;;;;;;;9.55;3.03;;;22.10;43.70;;;;;;6242394;28;20048;-70
2020/12/14 14:56:34;;;;;;;6.05;2.60;;;22.10;43.60;;;;;;6248738;28;20104;-72
2020/12/14 14:59:35;;;;;;;11.32;2.30;;;22.10;43.50;;;;;;6244579;28;20105;-68
2020/12/14 15:02:35;;;;;;;7.68;2.70;;;22.10;43.50;;;;;;6245776;28;20079;-73
2020/12/14 15:05:36;;;;;;;3.70;2.28;;;22.20;44.00;;;;;;6240964;28;20037;-69
2020/12/14 15:08:36;;;;;;;6.43;2.28;;;22.20;43.70;;;;;;6259152;28;20017;-72
2020/12/14 15:11:39;;;;;;;4.93;2.50;;;22.20;44.20;;;;;;6265124;28;20115;-69
2020/12/14 15:14:40;;;;;;;8.88;2.38;;;22.20;44.10;;;;;;6269342;28;20021;-71
2020/12/14 15:17:41;;;;;;;7.85;2.67;;;22.20;44.10;;;;;;6258387;28;20063;-71
2020/12/14 15:20:41;;;;;;;4.50;2.22;;;22.30;44.20;;;;;;6250085;28;20303;-71
2020/12/14 15:23:42;;;;;;;6.65;2.70;;;22.30;44.10;;;;;;6251830;28;20079;-69
2020/12/14 15:26:42;;;;;;;8.75;2.20;;;22.30;44.00;;;;;;6249417;28;20079;-72
2020/12/14 15:29:43;;;;;;;3.13;2.10;;;22.30;44.00;;;;;;6253008;28;20017;-71
2020/12/14 15:32:43;;;;;;;9.23;2.30;;;22.30;44.10;;;;;;6257886;28;20025;-69
2020/12/14 15:35:44;;;;;;;4.03;2.20;;;22.40;44.60;;;;;;6239359;28;20026;-70
2020/12/14 15:38:46;;;;;;;6.57;2.17;;;22.40;44.10;;;;;;6236141;28;20180;-73
2020/12/14 15:41:47;;;;;;;8.50;2.65;;;22.40;44.40;;;;;;6243480;28;20074;-69
2020/12/14 15:44:48;;;;;;;3.92;2.08;;;22.40;44.10;;;;;;6268117;28;20030;-67